sensor_id;sensor_type;location;lat;lon;timestamp;temperature;humidity
54884;DHT22;40776;52.880;6.016;2023-07-20T03:07:53;12.30;99.90
54884;DHT22;40776;52.880;6.016;2023-07-20T06:01:16;16.50;99.90
54884;DHT22;40776;52.880;6.016;2023-07-20T06:25:42;18.00;99.90
54884;DHT22;40776;52.880;6.016;2023-07-20T06:40:18;18.60;99.90
54884;DHT22;40776;52.880;6.016;2023-07-20T06:50:07;18.10;99.90
54884;DHT22;40776;52.880;6.016;2023-07-20T07:41:26;18.10;99.90
54884;DHT22;40776;52.880;6.016;2023-07-20T07:46:17;18.90;99.90
54884;DHT22;40776;52.880;6.016;2023-07-20T07:51:09;19.50;99.90
54884;DHT22;40776;52.880;6.016;2023-07-20T07:56:02;19.40;99.90
54884;DHT22;40776;52.880;6.016;2023-07-20T07:58:29;19.30;99.90
54884;DHT22;40776;52.880;6.016;2023-07-20T08:03:21;19.00;99.90
54884;DHT22;40776;52.880;6.016;2023-07-20T08:08:13;18.70;99.90
54884;DHT22;40776;52.880;6.016;2023-07-20T08:10:38;19.00;99.90
54884;DHT22;40776;52.880;6.016;2023-07-20T08:17:56;20.10;99.90
54884;DHT22;40776;52.880;6.016;2023-07-20T08:20:25;20.10;99.90
54884;DHT22;40776;52.880;6.016;2023-07-20T08:30:14;19.60;99.90
54884;DHT22;40776;52.880;6.016;2023-07-20T08:32:39;20.30;99.90
54884;DHT22;40776;52.880;6.016;2023-07-20T08:35:06;20.70;99.90
54884;DHT22;40776;52.880;6.016;2023-07-20T08:44:52;20.60;99.90
54884;DHT22;40776;52.880;6.016;2023-07-20T08:47:18;20.80;99.90
54884;DHT22;40776;52.880;6.016;2023-07-20T08:52:14;20.80;99.90
54884;DHT22;40776;52.880;6.016;2023-07-20T08:54:40;20.60;99.90
54884;DHT22;40776;52.880;6.016;2023-07-20T08:57:06;20.50;99.90
54884;DHT22;40776;52.880;6.016;2023-07-20T08:59:36;20.30;99.90
54884;DHT22;40776;52.880;6.016;2023-07-20T09:04:28;20.20;99.90
54884;DHT22;40776;52.880;6.016;2023-07-20T09:06:55;20.40;99.90
54884;DHT22;40776;52.880;6.016;2023-07-20T09:14:16;20.30;99.90
54884;DHT22;40776;52.880;6.016;2023-07-20T09:16:55;20.50;99.90
54884;DHT22;40776;52.880;6.016;2023-07-20T09:21:52;20.80;99.90
54884;DHT22;40776;52.880;6.016;2023-07-20T09:24:19;21.30;99.90
54884;DHT22;40776;52.880;6.016;2023-07-20T09:26:45;21.00;99.90
54884;DHT22;40776;52.880;6.016;2023-07-20T09:29:14;21.20;99.90
54884;DHT22;40776;52.880;6.016;2023-07-20T09:32:06;21.50;99.90
54884;DHT22;40776;52.880;6.016;2023-07-20T09:34:32;21.80;99.90
54884;DHT22;40776;52.880;6.016;2023-07-20T09:36:59;21.90;99.90
54884;DHT22;40776;52.880;6.016;2023-07-20T09:39:28;22.00;99.90
54884;DHT22;40776;52.880;6.016;2023-07-20T09:41:54;22.00;99.90
54884;DHT22;40776;52.880;6.016;2023-07-20T09:44:27;22.30;99.90
54884;DHT22;40776;52.880;6.016;2023-07-20T09:46:54;21.80;99.90
54884;DHT22;40776;52.880;6.016;2023-07-20T09:49:21;22.00;99.90
54884;DHT22;40776;52.880;6.016;2023-07-20T09:51:47;22.10;99.90
54884;DHT22;40776;52.880;6.016;2023-07-20T09:54:13;22.00;99.90
54884;DHT22;40776;52.880;6.016;2023-07-20T09:56:40;22.50;99.90
54884;DHT22;40776;52.880;6.016;2023-07-20T09:59:07;22.30;99.90
54884;DHT22;40776;52.880;6.016;2023-07-20T10:01:34;22.30;99.90
54884;DHT22;40776;52.880;6.016;2023-07-20T10:04:03;21.80;99.90
54884;DHT22;40776;52.880;6.016;2023-07-20T10:06:32;21.90;99.90
54884;DHT22;40776;52.880;6.016;2023-07-20T10:09:01;21.60;99.90
54884;DHT22;40776;52.880;6.016;2023-07-20T10:11:30;21.80;99.90
54884;DHT22;40776;52.880;6.016;2023-07-20T10:14:01;21.90;99.90
54884;DHT22;40776;52.880;6.016;2023-07-20T10:16:31;22.50;99.90
54884;DHT22;40776;52.880;6.016;2023-07-20T10:19:07;22.20;99.90
54884;DHT22;40776;52.880;6.016;2023-07-20T10:21:40;21.90;99.90
54884;DHT22;40776;52.880;6.016;2023-07-20T10:24:08;22.10;99.90
54884;DHT22;40776;52.880;6.016;2023-07-20T10:29:03;22.10;99.90
54884;DHT22;40776;52.880;6.016;2023-07-20T10:31:30;22.30;99.90
54884;DHT22;40776;52.880;6.016;2023-07-20T10:33:57;22.30;99.90
54884;DHT22;40776;52.880;6.016;2023-07-20T10:36:27;22.50;99.90
54884;DHT22;40776;52.880;6.016;2023-07-20T10:38:54;22.40;99.90
54884;DHT22;40776;52.880;6.016;2023-07-20T10:43:48;22.50;99.90
54884;DHT22;40776;52.880;6.016;2023-07-20T10:49:13;22.80;99.90
54884;DHT22;40776;52.880;6.016;2023-07-20T10:51:48;22.40;99.90
54884;DHT22;40776;52.880;6.016;2023-07-20T10:56:48;22.20;99.90
54884;DHT22;40776;52.880;6.016;2023-07-20T10:59:37;22.00;99.90
54884;DHT22;40776;52.880;6.016;2023-07-20T11:02:12;21.70;99.90
54884;DHT22;40776;52.880;6.016;2023-07-20T11:04:41;21.50;99.90
54884;DHT22;40776;52.880;6.016;2023-07-20T11:07:09;21.60;99.90
54884;DHT22;40776;52.880;6.016;2023-07-20T11:09:37;21.50;99.90
54884;DHT22;40776;52.880;6.016;2023-07-20T11:12:12;21.50;99.90
54884;DHT22;40776;52.880;6.016;2023-07-20T11:14:58;21.70;99.90
54884;DHT22;40776;52.880;6.016;2023-07-20T11:17:31;21.80;99.90
54884;DHT22;40776;52.880;6.016;2023-07-20T11:20:00;21.90;99.90
54884;DHT22;40776;52.880;6.016;2023-07-20T11:22:27;21.80;99.90
54884;DHT22;40776;52.880;6.016;2023-07-20T11:24:58;21.50;99.90
54884;DHT22;40776;52.880;6.016;2023-07-20T11:27:24;21.70;99.90
54884;DHT22;40776;52.880;6.016;2023-07-20T11:29:52;21.80;99.90
54884;DHT22;40776;52.880;6.016;2023-07-20T11:32:22;21.90;99.90
54884;DHT22;40776;52.880;6.016;2023-07-20T11:34:49;22.20;99.90
54884;DHT22;40776;52.880;6.016;2023-07-20T11:37:25;22.60;99.90
54884;DHT22;40776;52.880;6.016;2023-07-20T11:39:56;22.60;99.90
54884;DHT22;40776;52.880;6.016;2023-07-20T11:42:23;23.10;99.90
54884;DHT22;40776;52.880;6.016;2023-07-20T11:44:52;22.60;99.90
54884;DHT22;40776;52.880;6.016;2023-07-20T11:47:18;23.10;99.90
54884;DHT22;40776;52.880;6.016;2023-07-20T11:49:45;23.10;99.90
54884;DHT22;40776;52.880;6.016;2023-07-20T11:52:16;23.30;99.90
54884;DHT22;40776;52.880;6.016;2023-07-20T11:54:43;23.40;99.90
54884;DHT22;40776;52.880;6.016;2023-07-20T11:57:27;23.20;99.90
54884;DHT22;40776;52.880;6.016;2023-07-20T11:59:56;22.80;99.90
54884;DHT22;40776;52.880;6.016;2023-07-20T12:02:23;22.80;99.90
54884;DHT22;40776;52.880;6.016;2023-07-20T12:07:19;22.80;99.90
54884;DHT22;40776;52.880;6.016;2023-07-20T12:10:02;22.60;99.90
54884;DHT22;40776;52.880;6.016;2023-07-20T12:12:28;22.30;99.90
54884;DHT22;40776;52.880;6.016;2023-07-20T12:14:54;22.00;99.90
54884;DHT22;40776;52.880;6.016;2023-07-20T12:19:46;21.80;99.90
54884;DHT22;40776;52.880;6.016;2023-07-20T12:27:04;21.00;99.90
54884;DHT22;40776;52.880;6.016;2023-07-20T12:34:30;21.40;99.90
54884;DHT22;40776;52.880;6.016;2023-07-20T12:41:48;22.60;99.90
54884;DHT22;40776;52.880;6.016;2023-07-20T12:46:40;22.90;99.90
54884;DHT22;40776;52.880;6.016;2023-07-20T12:51:34;23.30;99.90
54884;DHT22;40776;52.880;6.016;2023-07-20T12:56:26;23.20;99.90
54884;DHT22;40776;52.880;6.016;2023-07-20T13:01:18;23.40;99.90
54884;DHT22;40776;52.880;6.016;2023-07-20T13:03:44;23.70;99.90
54884;DHT22;40776;52.880;6.016;2023-07-20T13:06:09;24.00;99.90
54884;DHT22;40776;52.880;6.016;2023-07-20T13:15:55;23.20;99.90
54884;DHT22;40776;52.880;6.016;2023-07-20T13:28:05;23.10;99.90
54884;DHT22;40776;52.880;6.016;2023-07-20T13:30:31;23.30;99.90
54884;DHT22;40776;52.880;6.016;2023-07-20T13:32:57;23.20;99.90
54884;DHT22;40776;52.880;6.016;2023-07-20T13:40:15;23.60;99.90
54884;DHT22;40776;52.880;6.016;2023-07-20T13:42:44;23.50;99.90
54884;DHT22;40776;52.880;6.016;2023-07-20T13:50:02;23.10;99.90
54884;DHT22;40776;52.880;6.016;2023-07-20T13:59:46;23.30;99.90
54884;DHT22;40776;52.880;6.016;2023-07-20T14:02:14;23.20;99.90
54884;DHT22;40776;52.880;6.016;2023-07-20T14:04:41;23.40;99.90
54884;DHT22;40776;52.880;6.016;2023-07-20T14:07:06;23.30;99.90
54884;DHT22;40776;52.880;6.016;2023-07-20T14:09:32;23.40;99.90
54884;DHT22;40776;52.880;6.016;2023-07-20T14:16:50;22.90;99.90
54884;DHT22;40776;52.880;6.016;2023-07-20T14:26:37;23.70;99.90
54884;DHT22;40776;52.880;6.016;2023-07-20T14:36:21;23.40;99.90
54884;DHT22;40776;52.880;6.016;2023-07-20T14:41:12;23.50;99.90
54884;DHT22;40776;52.880;6.016;2023-07-20T14:43:38;23.50;99.90
54884;DHT22;40776;52.880;6.016;2023-07-20T14:46:04;23.70;99.90
54884;DHT22;40776;52.880;6.016;2023-07-20T14:50:57;22.90;99.90
54884;DHT22;40776;52.880;6.016;2023-07-20T14:53:23;22.80;99.90
54884;DHT22;40776;52.880;6.016;2023-07-20T14:55:48;22.30;99.90
54884;DHT22;40776;52.880;6.016;2023-07-20T15:00:44;22.10;99.90
54884;DHT22;40776;52.880;6.016;2023-07-20T15:03:10;22.20;99.90
54884;DHT22;40776;52.880;6.016;2023-07-20T15:08:03;21.80;99.90
54884;DHT22;40776;52.880;6.016;2023-07-20T15:10:31;21.70;99.90
54884;DHT22;40776;52.880;6.016;2023-07-20T15:15:24;21.70;99.90
54884;DHT22;40776;52.880;6.016;2023-07-20T15:22:42;21.70;99.90
54884;DHT22;40776;52.880;6.016;2023-07-20T15:25:09;22.20;99.90
54884;DHT22;40776;52.880;6.016;2023-07-20T15:27:39;22.20;99.90
54884;DHT22;40776;52.880;6.016;2023-07-20T15:30:07;23.90;99.90
54884;DHT22;40776;52.880;6.016;2023-07-20T15:32:34;24.90;99.90
54884;DHT22;40776;52.880;6.016;2023-07-20T15:35:05;24.90;99.90
54884;DHT22;40776;52.880;6.016;2023-07-20T15:37:33;25.60;99.90
54884;DHT22;40776;52.880;6.016;2023-07-20T15:39:59;25.90;99.90
54884;DHT22;40776;52.880;6.016;2023-07-20T15:42:29;25.00;99.90
54884;DHT22;40776;52.880;6.016;2023-07-20T15:44:55;26.30;99.90
54884;DHT22;40776;52.880;6.016;2023-07-20T15:47:21;26.10;99.90
54884;DHT22;40776;52.880;6.016;2023-07-20T15:49:47;26.10;99.90
54884;DHT22;40776;52.880;6.016;2023-07-20T15:52:13;26.40;99.90
54884;DHT22;40776;52.880;6.016;2023-07-20T15:54:40;27.20;99.90
54884;DHT22;40776;52.880;6.016;2023-07-20T15:57:07;26.90;99.90
54884;DHT22;40776;52.880;6.016;2023-07-20T15:59:38;26.20;99.90
54884;DHT22;40776;52.880;6.016;2023-07-20T16:02:06;26.30;99.90
54884;DHT22;40776;52.880;6.016;2023-07-20T16:04:34;26.00;99.90
54884;DHT22;40776;52.880;6.016;2023-07-20T16:06:59;26.30;99.90
54884;DHT22;40776;52.880;6.016;2023-07-20T16:09:25;27.10;99.90
54884;DHT22;40776;52.880;6.016;2023-07-20T16:11:52;26.90;99.90
54884;DHT22;40776;52.880;6.016;2023-07-20T16:14:17;27.20;99.90
54884;DHT22;40776;52.880;6.016;2023-07-20T16:16:43;27.50;99.90
54884;DHT22;40776;52.880;6.016;2023-07-20T16:19:09;26.90;99.90
54884;DHT22;40776;52.880;6.016;2023-07-20T16:21:34;27.00;99.80
54884;DHT22;40776;52.880;6.016;2023-07-20T16:24:00;26.80;99.90
54884;DHT22;40776;52.880;6.016;2023-07-20T16:26:26;26.80;99.90
54884;DHT22;40776;52.880;6.016;2023-07-20T16:28:52;27.00;99.50
54884;DHT22;40776;52.880;6.016;2023-07-20T16:31:18;26.90;99.90
54884;DHT22;40776;52.880;6.016;2023-07-20T16:33:44;27.20;99.70
54884;DHT22;40776;52.880;6.016;2023-07-20T16:36:11;27.40;99.10
54884;DHT22;40776;52.880;6.016;2023-07-20T16:38:38;26.80;98.70
54884;DHT22;40776;52.880;6.016;2023-07-20T16:41:08;27.50;99.60
54884;DHT22;40776;52.880;6.016;2023-07-20T16:43:35;27.30;99.50
54884;DHT22;40776;52.880;6.016;2023-07-20T16:46:02;27.30;99.20
54884;DHT22;40776;52.880;6.016;2023-07-20T16:48:31;27.50;99.00
54884;DHT22;40776;52.880;6.016;2023-07-20T16:50:57;27.20;99.60
54884;DHT22;40776;52.880;6.016;2023-07-20T16:53:23;27.20;98.90
54884;DHT22;40776;52.880;6.016;2023-07-20T16:55:53;27.50;99.60
54884;DHT22;40776;52.880;6.016;2023-07-20T16:58:22;27.50;99.30
54884;DHT22;40776;52.880;6.016;2023-07-20T17:00:49;27.40;99.10
54884;DHT22;40776;52.880;6.016;2023-07-20T17:03:17;26.70;99.50
54884;DHT22;40776;52.880;6.016;2023-07-20T17:05:44;26.50;99.70
54884;DHT22;40776;52.880;6.016;2023-07-20T17:08:10;26.30;99.90
54884;DHT22;40776;52.880;6.016;2023-07-20T17:10:37;26.30;99.80
54884;DHT22;40776;52.880;6.016;2023-07-20T17:13:03;26.40;99.90
54884;DHT22;40776;52.880;6.016;2023-07-20T17:15:33;26.70;99.60
54884;DHT22;40776;52.880;6.016;2023-07-20T17:17:59;27.00;99.20
54884;DHT22;40776;52.880;6.016;2023-07-20T17:20:25;26.80;98.90
54884;DHT22;40776;52.880;6.016;2023-07-20T17:22:51;27.20;99.50
54884;DHT22;40776;52.880;6.016;2023-07-20T17:25:19;27.00;99.90
54884;DHT22;40776;52.880;6.016;2023-07-20T17:35:30;26.00;99.90
54884;DHT22;40776;52.880;6.016;2023-07-20T17:37:56;25.90;99.90
54884;DHT22;40776;52.880;6.016;2023-07-20T17:40:22;26.10;99.60
54884;DHT22;40776;52.880;6.016;2023-07-20T17:42:49;26.30;98.70
54884;DHT22;40776;52.880;6.016;2023-07-20T17:45:18;26.80;98.20
54884;DHT22;40776;52.880;6.016;2023-07-20T17:50:10;26.10;99.30
54884;DHT22;40776;52.880;6.016;2023-07-20T17:52:37;26.10;98.40
54884;DHT22;40776;52.880;6.016;2023-07-20T17:55:03;25.80;99.50
54884;DHT22;40776;52.880;6.016;2023-07-20T17:57:29;26.10;99.30
54884;DHT22;40776;52.880;6.016;2023-07-20T17:59:55;25.90;98.20
54884;DHT22;40776;52.880;6.016;2023-07-20T18:04:51;24.40;99.90
54884;DHT22;40776;52.880;6.016;2023-07-20T18:07:17;24.00;99.90
54884;DHT22;40776;52.880;6.016;2023-07-20T18:09:43;23.70;99.90
54884;DHT22;40776;52.880;6.016;2023-07-20T18:12:09;23.10;99.90
54884;DHT22;40776;52.880;6.016;2023-07-20T18:14:37;22.40;99.90
54884;DHT22;40776;52.880;6.016;2023-07-20T18:17:06;22.10;99.90
54884;DHT22;40776;52.880;6.016;2023-07-20T18:48:53;20.10;99.90
